North Woods Beach, Wisconsin
Current Conditions -  °F | °C
As of 2:53 AM on Saturday 22 Nov 2014 (Local Time) from KHYR Reporting Station
Overcast Overcast  
Wind Chill: -6°   Ceiling: 1200
Heat Index:   Visibility: 7mi
Dew Point: -3°   Wind: 15mph
Humidity: 82%   Direction: 210°SSW
Pressure: 29.79"   Gusts: NA
Location:  46.0387°N, 91.2627°W
Report Text: KHYR 220853Z AUTO 21013KT 7SM OVC012 00/M03 A2979 RMK AO2 SLP104 T00001028 58009
Loading
Personal Weather Stations






























Interactive Weather Map New forecast layout! Learn more

10-Day Weather Forecast

Advertisements
Track Severe Weather on mobile